Time;durP1;ratioP1;P1;durP2;ratioP2;P2;SDS_P1;SDS_P2;PMS_P1;PMS_P2;Temp;Humidity;BMP_temperature;BMP_pressure;BME280_temperature;BME280_humidity;BME280_pressure;Samples;Min_cycle;Max_cycle;Signal;HPM_P1;HPM_P2
2022/10/13 00:00:56;;;;;;;;;;;10.90;99.90;;;;;;12544104;28;19932;-36
2022/10/13 00:06:58;;;;;;;;;;;10.80;99.90;;;;;;12550474;28;19984;-36
2022/10/13 00:13:00;;;;;;;;;;;10.80;99.90;;;;;;12552361;28;19925;-36
2022/10/13 00:19:02;;;;;;;;;;;10.70;99.90;;;;;;12550019;28;19929;-36
2022/10/13 00:25:04;;;;;;;;;;;10.70;99.90;;;;;;12553138;28;19929;-36
2022/10/13 00:31:16;;;;;;;;;;;10.70;99.90;;;;;;12546817;28;19991;-36
2022/10/13 00:37:18;;;;;;;;;;;10.60;99.90;;;;;;12541179;28;19932;-36
2022/10/13 00:43:21;;;;;;;;;;;10.60;99.90;;;;;;12544474;28;19934;-37
2022/10/13 00:49:23;;;;;;;;;;;10.50;99.90;;;;;;12557921;28;20356;-36
2022/10/13 00:55:26;;;;;;;;;;;10.60;99.90;;;;;;12547612;28;20312;-37
2022/10/13 01:01:28;;;;;;;;;;;10.60;99.90;;;;;;12548674;28;19929;-36
2022/10/13 01:07:30;;;;;;;;;;;10.60;99.90;;;;;;12561283;28;19925;-36
2022/10/13 01:13:43;;;;;;;;;;;10.60;99.90;;;;;;12546713;28;19925;-37
2022/10/13 01:20:04;;;;;;;;;;;10.60;99.90;;;;;;12563111;28;19944;-36
2022/10/13 01:26:24;;;;;;;;;;;10.50;99.90;;;;;;12542159;28;19933;-36
2022/10/13 01:32:30;;;;;;;;;;;10.60;99.90;;;;;;12551712;28;20307;-36
2022/10/13 01:38:38;;;;;;;;;;;10.60;99.90;;;;;;12554721;28;19929;-37
2022/10/13 01:44:42;;;;;;;;;;;10.60;99.90;;;;;;12543200;28;19932;-36
2022/10/13 01:50:44;;;;;;;;;;;10.50;99.90;;;;;;12554491;28;19925;-36
2022/10/13 01:56:52;;;;;;;;;;;10.40;99.90;;;;;;12556708;28;20296;-36
2022/10/13 02:03:03;;;;;;;;;;;10.40;99.90;;;;;;12557236;28;19925;-36
2022/10/13 02:09:11;;;;;;;;;;;10.30;99.90;;;;;;12551967;28;19943;-37
2022/10/13 02:15:15;;;;;;;;;;;10.30;99.90;;;;;;12551226;28;20284;-36
2022/10/13 02:21:17;;;;;;;;;;;10.30;99.90;;;;;;12537363;28;19925;-37
2022/10/13 02:27:20;;;;;;;;;;;10.30;99.90;;;;;;12561708;28;20277;-36
2022/10/13 02:33:21;;;;;;;;;;;10.40;99.90;;;;;;12560191;28;19939;-36
2022/10/13 02:39:23;;;;;;;;;;;10.40;99.90;;;;;;12554289;28;19929;-36
2022/10/13 02:45:25;;;;;;;;;;;10.40;99.90;;;;;;12565435;28;20490;-36
2022/10/13 02:51:27;;;;;;;;;;;10.40;99.90;;;;;;12544866;28;19970;-36
2022/10/13 02:57:28;;;;;;;;;;;10.40;99.90;;;;;;12556590;28;20376;-36
2022/10/13 03:03:30;;;;;;;;;;;10.50;99.90;;;;;;12555527;28;20304;-37
2022/10/13 03:09:32;;;;;;;;;;;10.50;99.90;;;;;;12550425;28;19933;-36
2022/10/13 03:15:34;;;;;;;;;;;10.50;99.90;;;;;;12550132;28;19925;-36
2022/10/13 03:21:36;;;;;;;;;;;10.50;99.90;;;;;;12564076;28;20389;-36
2022/10/13 03:27:38;;;;;;;;;;;10.50;99.90;;;;;;12552499;28;19932;-36
2022/10/13 03:33:40;;;;;;;;;;;10.60;99.90;;;;;;12557229;28;19925;-36
2022/10/13 03:39:42;;;;;;;;;;;10.70;99.90;;;;;;12552875;28;19929;-36
2022/10/13 03:45:44;;;;;;;;;;;10.60;99.90;;;;;;12551704;28;19924;-36
2022/10/13 03:51:46;;;;;;;;;;;10.20;99.90;;;;;;12553498;28;20043;-36
2022/10/13 03:57:48;;;;;;;;;;;10.20;99.90;;;;;;12563671;28;20383;-36
2022/10/13 04:03:54;;;;;;;;;;;10.00;99.90;;;;;;12556409;28;19928;-36
2022/10/13 04:09:56;;;;;;;;;;;9.90;99.90;;;;;;12557596;28;20089;-37
2022/10/13 04:16:05;;;;;;;;;;;9.70;99.90;;;;;;12557072;28;19978;-36
2022/10/13 04:22:07;;;;;;;;;;;9.70;99.90;;;;;;12553451;28;19996;-37
2022/10/13 04:28:10;;;;;;;;;;;10.00;99.90;;;;;;12555166;28;19932;-36
2022/10/13 04:34:12;;;;;;;;;;;10.20;99.90;;;;;;12524039;28;19931;-36
2022/10/13 04:40:14;;;;;;;;;;;10.30;99.90;;;;;;12546119;28;19925;-36
2022/10/13 04:46:18;;;;;;;;;;;10.30;99.90;;;;;;12547830;28;19951;-36
2022/10/13 04:52:20;;;;;;;;;;;10.30;99.90;;;;;;12542973;28;19925;-36
2022/10/13 04:58:22;;;;;;;;;;;10.40;99.90;;;;;;12540754;28;19925;-37
2022/10/13 05:04:23;;;;;;;;;;;10.50;99.90;;;;;;12540295;28;20304;-36
2022/10/13 05:10:25;;;;;;;;;;;10.60;99.90;;;;;;12531475;28;19947;-37
2022/10/13 05:16:33;;;;;;;;;;;10.60;99.90;;;;;;12535207;28;19929;-36
2022/10/13 05:22:34;;;;;;;;;;;10.70;99.90;;;;;;12549826;28;19932;-36
2022/10/13 05:28:36;;;;;;;;;;;10.60;99.90;;;;;;12557434;28;20304;-36
2022/10/13 05:34:38;;;;;;;;;;;10.60;99.90;;;;;;12566549;28;19929;-36
2022/10/13 05:40:40;;;;;;;;;;;10.60;99.90;;;;;;12563214;28;20284;-37
2022/10/13 05:46:42;;;;;;;;;;;10.60;99.90;;;;;;12560047;28;19932;-36
2022/10/13 05:52:44;;;;;;;;;;;10.60;99.90;;;;;;12564108;28;20299;-36
2022/10/13 05:58:48;;;;;;;;;;;10.70;99.90;;;;;;12560548;28;19928;-36
2022/10/13 06:04:50;;;;;;;;;;;10.80;99.90;;;;;;12560286;28;19928;-37
2022/10/13 06:10:52;;;;;;;;;;;10.80;99.90;;;;;;12565086;28;19925;-36
2022/10/13 06:16:54;;;;;;;;;;;10.90;99.90;;;;;;12546195;28;19925;-37
2022/10/13 06:22:56;;;;;;;;;;;11.00;99.90;;;;;;12552306;28;20193;-36
2022/10/13 06:28:57;;;;;;;;;;;11.00;99.90;;;;;;12547849;28;19929;-36
2022/10/13 06:35:00;;;;;;;;;;;11.00;99.90;;;;;;12548222;28;19999;-36
2022/10/13 06:41:03;;;;;;;;;;;10.90;99.90;;;;;;12548748;28;19925;-36
2022/10/13 06:47:05;;;;;;;;;;;10.90;99.90;;;;;;12554156;28;20039;-36
2022/10/13 06:53:07;;;;;;;;;;;11.00;99.90;;;;;;12561312;28;19929;-36
2022/10/13 06:59:09;;;;;;;;;;;11.10;99.90;;;;;;12552593;28;19928;-36
2022/10/13 07:05:10;;;;;;;;;;;11.10;99.90;;;;;;12557843;28;20304;-36
2022/10/13 07:11:13;;;;;;;;;;;11.10;99.90;;;;;;12556915;28;20512;-36
2022/10/13 07:17:16;;;;;;;;;;;11.20;99.90;;;;;;12564415;28;19931;-36
2022/10/13 07:23:19;;;;;;;;;;;11.20;99.90;;;;;;12559405;28;19931;-36
2022/10/13 07:29:20;;;;;;;;;;;11.30;99.90;;;;;;12549740;28;19929;-36
2022/10/13 07:35:24;;;;;;;;;;;11.30;99.90;;;;;;12564194;28;19929;-36
2022/10/13 07:41:31;;;;;;;;;;;11.30;99.90;;;;;;12550737;28;19924;-36
2022/10/13 07:47:32;;;;;;;;;;;11.40;99.90;;;;;;12546413;28;19939;-36
2022/10/13 07:53:35;;;;;;;;;;;11.50;99.90;;;;;;12561751;28;19924;-36
2022/10/13 07:59:36;;;;;;;;;;;11.60;99.90;;;;;;12544732;28;19932;-36
2022/10/13 08:05:38;;;;;;;;;;;11.70;99.90;;;;;;12550321;28;20131;-36
2022/10/13 08:11:40;;;;;;;;;;;11.80;99.90;;;;;;12546188;28;19939;-36
2022/10/13 08:17:41;;;;;;;;;;;12.00;99.90;;;;;;12557156;28;19932;-36
2022/10/13 08:23:43;;;;;;;;;;;12.20;99.90;;;;;;12552676;28;19939;-36
2022/10/13 08:29:45;;;;;;;;;;;12.50;99.90;;;;;;12550573;28;19925;-37
2022/10/13 08:35:47;;;;;;;;;;;12.70;99.90;;;;;;12550162;28;20297;-37
2022/10/13 08:41:49;;;;;;;;;;;12.90;99.90;;;;;;12565993;28;20272;-38
2022/10/13 08:47:53;;;;;;;;;;;13.00;99.90;;;;;;12546727;28;19932;-36
2022/10/13 08:53:55;;;;;;;;;;;13.20;99.90;;;;;;12553074;28;19971;-36
2022/10/13 08:59:56;;;;;;;;;;;13.20;99.90;;;;;;12552718;28;20403;-37
2022/10/13 09:06:04;;;;;;;;;;;13.20;99.90;;;;;;12554661;28;20323;-36
2022/10/13 09:12:06;;;;;;;;;;;13.10;99.90;;;;;;12553449;28;19929;-36
2022/10/13 09:18:09;;;;;;;;;;;13.40;99.90;;;;;;12557629;28;20488;-36
2022/10/13 09:24:13;;;;;;;;;;;13.40;99.90;;;;;;12561549;28;20296;-36
2022/10/13 09:30:24;;;;;;;;;;;13.70;99.90;;;;;;12564502;28;19929;-36
2022/10/13 09:36:26;;;;;;;;;;;14.00;99.90;;;;;;12547974;28;19924;-36
2022/10/13 09:42:30;;;;;;;;;;;13.90;99.90;;;;;;12557437;28;19928;-36
2022/10/13 09:48:35;;;;;;;;;;;13.90;99.90;;;;;;12567066;28;19929;-36
2022/10/13 09:54:39;;;;;;;;;;;14.00;99.90;;;;;;12566631;28;19933;-36
2022/10/13 10:00:41;;;;;;;;;;;14.00;99.90;;;;;;12556781;28;19925;-37
2022/10/13 10:06:44;;;;;;;;;;;14.40;99.90;;;;;;12559554;28;19929;-36
2022/10/13 10:12:46;;;;;;;;;;;14.60;99.90;;;;;;12561848;28;19925;-36
2022/10/13 10:18:50;;;;;;;;;;;14.60;99.90;;;;;;12549804;28;19929;-37
2022/10/13 10:25:17;;;;;;;;;;;14.60;99.90;;;;;;12551138;28;19933;-37
2022/10/13 10:31:38;;;;;;;;;;;14.70;99.90;;;;;;12553870;28;19955;-37
2022/10/13 10:37:58;;;;;;;;;;;15.20;99.90;;;;;;12563342;28;20086;-37
2022/10/13 10:44:07;;;;;;;;;;;15.80;99.90;;;;;;12559053;28;19925;-36
2022/10/13 10:50:12;;;;;;;;;;;16.00;99.90;;;;;;12551963;28;19928;-37
2022/10/13 10:56:32;;;;;;;;;;;15.60;99.90;;;;;;12564751;28;19925;-37
2022/10/13 11:02:59;;;;;;;;;;;15.10;99.90;;;;;;12547929;28;19931;-37
2022/10/13 11:09:02;;;;;;;;;;;14.90;99.90;;;;;;12548055;28;19978;-36
2022/10/13 11:15:07;;;;;;;;;;;14.70;99.90;;;;;;12547166;28;19929;-37
2022/10/13 11:21:08;;;;;;;;;;;14.70;99.90;;;;;;12542529;28;19936;-36
2022/10/13 11:27:13;;;;;;;;;;;14.70;99.90;;;;;;12561459;28;19929;-37
2022/10/13 11:33:33;;;;;;;;;;;14.80;99.90;;;;;;12562529;28;19928;-36
2022/10/13 11:39:51;;;;;;;;;;;14.70;99.90;;;;;;12550521;28;19925;-36
2022/10/13 11:45:59;;;;;;;;;;;14.70;99.90;;;;;;12541675;28;19925;-37
2022/10/13 11:52:01;;;;;;;;;;;14.80;99.90;;;;;;12542213;28;20397;-36
2022/10/13 11:58:14;;;;;;;;;;;14.90;99.90;;;;;;12553918;28;20391;-36
2022/10/13 12:04:20;;;;;;;;;;;15.10;99.90;;;;;;12546959;28;19928;-36
2022/10/13 12:10:31;;;;;;;;;;;15.20;99.90;;;;;;12552896;28;19925;-36
2022/10/13 12:16:33;;;;;;;;;;;15.20;99.90;;;;;;12554069;28;19931;-38
2022/10/13 12:22:35;;;;;;;;;;;15.20;99.90;;;;;;12540431;28;19925;-36
2022/10/13 12:28:59;;;;;;;;;;;15.30;99.90;;;;;;12552745;28;19925;-37
2022/10/13 12:35:16;;;;;;;;;;;15.50;99.90;;;;;;12543995;28;20352;-37
2022/10/13 12:41:27;;;;;;;;;;;15.70;99.90;;;;;;12546045;28;20365;-36
2022/10/13 12:47:44;;;;;;;;;;;15.80;99.90;;;;;;12543835;28;20289;-37
2022/10/13 12:53:46;;;;;;;;;;;16.00;99.90;;;;;;12547021;28;19925;-36
2022/10/13 12:59:48;;;;;;;;;;;16.50;99.90;;;;;;12551059;28;19925;-37
2022/10/13 13:06:05;;;;;;;;;;;17.00;99.90;;;;;;12547771;28;19933;-37
2022/10/13 13:12:09;;;;;;;;;;;17.40;99.90;;;;;;12544407;28;19928;-36
2022/10/13 13:18:34;;;;;;;;;;;17.20;99.90;;;;;;12559695;28;19989;-36
2022/10/13 13:24:37;;;;;;;;;;;17.00;99.90;;;;;;12551651;28;19929;-36
2022/10/13 13:30:41;;;;;;;;;;;17.40;99.90;;;;;;12556293;28;19932;-37
2022/10/13 13:36:43;;;;;;;;;;;17.30;99.90;;;;;;12538547;28;19925;-37
2022/10/13 13:42:44;;;;;;;;;;;17.30;99.90;;;;;;12551135;28;19977;-36
2022/10/13 13:48:46;;;;;;;;;;;17.30;99.90;;;;;;12546777;28;19929;-36
2022/10/13 13:54:49;;;;;;;;;;;17.40;99.90;;;;;;12537823;28;19925;-36
2022/10/13 14:00:51;;;;;;;;;;;17.20;99.90;;;;;;12551032;28;19975;-36
2022/10/13 14:06:53;;;;;;;;;;;16.90;99.90;;;;;;12555961;28;20299;-37
2022/10/13 14:12:55;;;;;;;;;;;16.80;99.90;;;;;;12558991;28;19932;-36
2022/10/13 14:18:56;;;;;;;;;;;16.60;99.90;;;;;;12565307;28;19933;-36
2022/10/13 14:24:58;;;;;;;;;;;16.30;99.90;;;;;;12561730;28;19969;-37
2022/10/13 14:31:03;;;;;;;;;;;16.20;99.90;;;;;;12557814;28;19954;-38
2022/10/13 14:37:05;;;;;;;;;;;15.90;99.90;;;;;;12558575;28;19925;-37
2022/10/13 14:43:07;;;;;;;;;;;15.80;99.90;;;;;;12563408;28;19928;-37
2022/10/13 14:49:09;;;;;;;;;;;15.70;99.90;;;;;;12543605;28;20384;-36
2022/10/13 14:55:10;;;;;;;;;;;15.60;99.90;;;;;;12557322;28;19924;-36
2022/10/13 15:01:13;;;;;;;;;;;15.60;99.90;;;;;;12554116;28;19929;-36
2022/10/13 15:07:14;;;;;;;;;;;15.50;99.90;;;;;;12539886;28;19925;-36
2022/10/13 15:13:16;;;;;;;;;;;15.40;99.90;;;;;;12541866;28;19935;-36
2022/10/13 15:19:18;;;;;;;;;;;15.40;99.90;;;;;;12556859;28;19925;-37
2022/10/13 15:25:20;;;;;;;;;;;15.30;99.90;;;;;;12551993;28;19928;-36
2022/10/13 15:31:22;;;;;;;;;;;15.30;99.90;;;;;;12543400;28;19924;-36
2022/10/13 15:37:24;;;;;;;;;;;15.30;99.90;;;;;;12540339;28;19925;-36
2022/10/13 15:43:26;;;;;;;;;;;15.20;99.90;;;;;;12548115;28;19928;-36
2022/10/13 15:49:28;;;;;;;;;;;15.20;99.90;;;;;;12547318;28;19925;-36
2022/10/13 15:55:30;;;;;;;;;;;15.20;99.90;;;;;;12540738;28;20027;-37
2022/10/13 16:01:32;;;;;;;;;;;15.10;99.90;;;;;;12541632;28;19928;-36
2022/10/13 16:07:34;;;;;;;;;;;15.00;99.90;;;;;;12542419;28;19936;-36
2022/10/13 16:13:35;;;;;;;;;;;14.90;99.90;;;;;;12543871;28;19928;-36
2022/10/13 16:19:37;;;;;;;;;;;14.90;99.90;;;;;;12541102;28;19933;-37
2022/10/13 16:25:39;;;;;;;;;;;14.80;99.90;;;;;;12548121;28;19956;-36
2022/10/13 16:31:40;;;;;;;;;;;14.80;99.90;;;;;;12543607;28;19971;-37
2022/10/13 16:37:42;;;;;;;;;;;14.70;99.90;;;;;;12549428;28;20369;-36
2022/10/13 16:43:46;;;;;;;;;;;14.40;99.90;;;;;;12546357;28;20294;-37
2022/10/13 16:49:48;;;;;;;;;;;14.30;99.90;;;;;;12547751;28;20357;-38
2022/10/13 16:55:49;;;;;;;;;;;14.20;99.90;;;;;;12546416;28;19931;-36
2022/10/13 17:01:51;;;;;;;;;;;14.00;99.90;;;;;;12549478;28;19929;-37
2022/10/13 17:07:53;;;;;;;;;;;13.90;99.90;;;;;;12548261;28;19933;-36
2022/10/13 17:13:55;;;;;;;;;;;13.70;99.90;;;;;;12539720;28;19924;-37
2022/10/13 17:19:57;;;;;;;;;;;13.60;99.90;;;;;;12541461;28;20257;-36
2022/10/13 17:26:02;;;;;;;;;;;13.50;99.90;;;;;;12549185;28;19929;-36
2022/10/13 17:32:04;;;;;;;;;;;13.40;99.90;;;;;;12545898;28;19954;-37
2022/10/13 17:38:06;;;;;;;;;;;13.30;99.90;;;;;;12548528;28;19932;-37
2022/10/13 17:44:08;;;;;;;;;;;13.20;99.90;;;;;;12552328;28;19928;-36
2022/10/13 17:50:10;;;;;;;;;;;13.20;99.90;;;;;;12548234;28;19931;-36
2022/10/13 17:56:18;;;;;;;;;;;13.10;99.90;;;;;;12551058;28;19929;-36
2022/10/13 18:02:20;;;;;;;;;;;13.10;99.90;;;;;;12553893;28;19928;-37
2022/10/13 18:08:22;;;;;;;;;;;13.00;99.90;;;;;;12555045;28;19931;-36
2022/10/13 18:14:24;;;;;;;;;;;13.00;99.90;;;;;;12556876;28;19928;-36
2022/10/13 18:20:26;;;;;;;;;;;12.90;99.90;;;;;;12555108;28;19925;-36
2022/10/13 18:26:30;;;;;;;;;;;13.00;99.90;;;;;;12554781;28;19933;-37
2022/10/13 18:32:33;;;;;;;;;;;12.90;99.90;;;;;;12561030;28;19951;-36
2022/10/13 18:38:35;;;;;;;;;;;12.90;99.90;;;;;;12558570;28;19936;-38
2022/10/13 18:44:36;;;;;;;;;;;12.90;99.90;;;;;;12558965;28;19935;-37
2022/10/13 18:50:38;;;;;;;;;;;12.90;99.90;;;;;;12554651;28;19931;-36
2022/10/13 18:56:40;;;;;;;;;;;12.90;99.90;;;;;;12558842;28;20294;-36
2022/10/13 19:02:41;;;;;;;;;;;12.90;99.90;;;;;;12556388;28;20015;-37
2022/10/13 19:08:44;;;;;;;;;;;12.80;99.90;;;;;;12558645;28;19928;-37
2022/10/13 19:14:46;;;;;;;;;;;12.80;99.90;;;;;;12560569;28;19946;-36
2022/10/13 19:20:50;;;;;;;;;;;12.80;99.90;;;;;;12554591;28;19936;-36
2022/10/13 19:26:51;;;;;;;;;;;12.80;99.90;;;;;;12553418;28;19928;-36
2022/10/13 19:32:53;;;;;;;;;;;12.80;99.90;;;;;;12559254;28;19925;-37
2022/10/13 19:38:55;;;;;;;;;;;12.80;99.90;;;;;;12548385;28;19929;-36
2022/10/13 19:44:59;;;;;;;;;;;12.70;99.90;;;;;;12550122;28;19925;-37
2022/10/13 19:51:01;;;;;;;;;;;12.70;99.90;;;;;;12545657;28;19936;-37
2022/10/13 19:57:03;;;;;;;;;;;12.70;99.90;;;;;;12564870;28;19924;-36
2022/10/13 20:03:04;;;;;;;;;;;12.80;99.90;;;;;;12559300;28;19928;-37
2022/10/13 20:09:07;;;;;;;;;;;12.80;99.90;;;;;;12559322;28;19972;-37
2022/10/13 20:15:09;;;;;;;;;;;12.80;99.90;;;;;;12554353;28;20381;-36
2022/10/13 20:21:11;;;;;;;;;;;12.80;99.90;;;;;;12556136;28;20296;-37
2022/10/13 20:27:13;;;;;;;;;;;12.80;99.90;;;;;;12549468;28;20014;-37
2022/10/13 20:33:15;;;;;;;;;;;12.80;99.90;;;;;;12561218;28;19935;-36
2022/10/13 20:39:17;;;;;;;;;;;12.70;99.90;;;;;;12551536;28;20292;-36
2022/10/13 20:45:19;;;;;;;;;;;12.70;99.90;;;;;;12547904;28;19934;-36
2022/10/13 20:51:21;;;;;;;;;;;12.60;99.90;;;;;;12547362;28;19950;-36
2022/10/13 20:57:23;;;;;;;;;;;12.60;99.90;;;;;;12554228;28;20411;-37
2022/10/13 21:03:25;;;;;;;;;;;12.60;99.90;;;;;;12562267;28;19924;-36
2022/10/13 21:09:27;;;;;;;;;;;12.60;99.90;;;;;;12559535;28;21034;-37
2022/10/13 21:15:30;;;;;;;;;;;12.60;99.90;;;;;;12560176;28;20380;-36
2022/10/13 21:21:33;;;;;;;;;;;12.50;99.90;;;;;;12556701;28;19929;-36
2022/10/13 21:27:35;;;;;;;;;;;12.50;99.90;;;;;;12562676;28;19954;-37
2022/10/13 21:33:38;;;;;;;;;;;12.50;99.90;;;;;;12565388;28;19929;-37
2022/10/13 21:39:40;;;;;;;;;;;12.50;99.90;;;;;;12562184;28;19947;-37
2022/10/13 21:45:42;;;;;;;;;;;12.60;99.90;;;;;;12565723;28;20300;-37
2022/10/13 21:51:44;;;;;;;;;;;12.60;99.90;;;;;;12561179;28;19929;-36
2022/10/13 21:57:45;;;;;;;;;;;12.50;99.90;;;;;;12565185;28;20396;-36
2022/10/13 22:03:47;;;;;;;;;;;12.50;99.90;;;;;;12558973;28;19928;-37
2022/10/13 22:09:49;;;;;;;;;;;12.40;99.90;;;;;;12557004;28;20369;-36
2022/10/13 22:15:51;;;;;;;;;;;12.40;99.90;;;;;;12549587;28;19924;-37
2022/10/13 22:21:55;;;;;;;;;;;12.40;99.90;;;;;;12552783;28;19929;-36
2022/10/13 22:27:56;;;;;;;;;;;12.40;99.90;;;;;;12556585;28;19929;-36
2022/10/13 22:33:59;;;;;;;;;;;12.40;99.90;;;;;;12554430;28;19929;-36
2022/10/13 22:40:01;;;;;;;;;;;12.40;99.90;;;;;;12532854;28;19929;-37
2022/10/13 22:46:03;;;;;;;;;;;12.40;99.90;;;;;;12539038;28;19955;-36
2022/10/13 22:52:06;;;;;;;;;;;12.40;99.90;;;;;;12564909;28;20384;-36
2022/10/13 22:58:07;;;;;;;;;;;12.40;99.90;;;;;;12553979;28;20360;-36
2022/10/13 23:04:09;;;;;;;;;;;12.40;99.90;;;;;;12552703;28;19929;-36
2022/10/13 23:10:11;;;;;;;;;;;12.40;99.90;;;;;;12546632;28;20432;-36
2022/10/13 23:16:14;;;;;;;;;;;12.40;99.90;;;;;;12550954;28;19925;-36
2022/10/13 23:22:16;;;;;;;;;;;12.40;99.90;;;;;;12556811;28;19925;-36
2022/10/13 23:28:18;;;;;;;;;;;12.40;99.90;;;;;;12547629;28;19926;-37
2022/10/13 23:34:20;;;;;;;;;;;12.50;99.90;;;;;;12561159;28;19974;-36
2022/10/13 23:40:21;;;;;;;;;;;12.40;99.90;;;;;;12549094;28;19924;-36
2022/10/13 23:46:23;;;;;;;;;;;12.40;99.90;;;;;;12533671;28;19925;-37
2022/10/13 23:52:25;;;;;;;;;;;12.40;99.90;;;;;;12553805;28;19924;-37
2022/10/13 23:58:27;;;;;;;;;;;12.40;99.90;;;;;;12554755;28;19928;-37
